Time;durP1;ratioP1;P1;durP2;ratioP2;P2;SDS_P1;SDS_P2;PMS_P1;PMS_P2;Temp;Humidity;BMP_temperature;BMP_pressure;BME280_temperature;BME280_humidity;BME280_pressure;Samples;Min_cycle;Max_cycle;Signal;HPM_P1;HPM_P2
2022/07/28 00:00:50;;;;;;;3.67;1.90;;;11.50;99.90;;;;;;5031058;28;20049;-60
2022/07/28 00:03:16;;;;;;;3.53;1.80;;;11.50;99.90;;;;;;5038185;28;20045;-60
2022/07/28 00:05:41;;;;;;;5.15;1.77;;;11.30;99.90;;;;;;5036447;28;20042;-60
2022/07/28 00:08:10;;;;;;;4.30;1.70;;;11.20;99.90;;;;;;5039824;28;20033;-60
2022/07/28 00:10:36;;;;;;;4.43;1.83;;;11.20;99.90;;;;;;5037966;28;20045;-60
2022/07/28 00:13:02;;;;;;;2.95;1.88;;;11.30;99.90;;;;;;5038649;28;20037;-60
2022/07/28 00:15:28;;;;;;;2.67;1.90;;;;;;;;;;5041554;28;20029;-60
2022/07/28 00:17:54;;;;;;;2.28;1.50;;;11.40;99.90;;;;;;5039730;28;20041;-60
2022/07/28 00:20:20;;;;;;;4.38;1.98;;;11.20;99.90;;;;;;5037907;28;20395;-60
2022/07/28 00:22:45;;;;;;;4.53;1.95;;;11.10;99.90;;;;;;5042154;28;20041;-59
2022/07/28 00:25:16;;;;;;;2.47;1.65;;;11.20;99.90;;;;;;5041545;28;20185;-58
2022/07/28 00:27:41;;;;;;;4.22;2.10;;;11.20;99.90;;;;;;5045876;28;20064;-58
2022/07/28 00:30:08;;;;;;;4.13;2.10;;;11.10;99.90;;;;;;5032422;28;20068;-60
2022/07/28 00:32:34;;;;;;;5.88;2.63;;;;;;;;;;5036907;28;20037;-60
2022/07/28 00:35:03;;;;;;;3.67;2.35;;;11.00;99.90;;;;;;5033116;28;20116;-58
2022/07/28 00:37:29;;;;;;;2.75;2.05;;;10.80;99.90;;;;;;5041451;28;20369;-60
2022/07/28 00:39:54;;;;;;;4.05;2.20;;;10.80;99.90;;;;;;5041024;28;20132;-60
2022/07/28 00:42:20;;;;;;;3.90;2.38;;;10.90;99.90;;;;;;5039455;28;20041;-58
2022/07/28 00:44:46;;;;;;;5.13;3.10;;;10.90;99.90;;;;;;5039815;28;20483;-60
2022/07/28 00:47:12;;;;;;;5.63;2.08;;;11.00;99.90;;;;;;5042287;28;20065;-60
2022/07/28 00:49:38;;;;;;;3.75;2.25;;;11.00;99.90;;;;;;5030844;28;20076;-60
2022/07/28 00:52:06;;;;;;;5.70;2.00;;;11.10;99.90;;;;;;5037717;28;20065;-60
2022/07/28 00:54:32;;;;;;;6.28;2.80;;;11.00;99.90;;;;;;5042555;28;20033;-60
2022/07/28 00:56:58;;;;;;;5.80;2.28;;;;;;;;;;5037088;28;20129;-60
2022/07/28 00:59:26;;;;;;;3.70;1.75;;;10.80;99.90;;;;;;5039308;28;20136;-60
2022/07/28 01:01:54;;;;;;;3.83;2.00;;;10.90;99.90;;;;;;5036756;28;20046;-60
2022/07/28 01:04:20;;;;;;;4.20;2.20;;;10.80;99.90;;;;;;5046614;28;20037;-59
2022/07/28 01:06:56;;;;;;;2.95;2.03;;;10.90;99.90;;;;;;5037117;28;20045;-58
2022/07/28 01:09:34;;;;;;;3.97;1.63;;;11.00;99.90;;;;;;5038131;28;20563;-60
2022/07/28 01:12:41;;;;;;;1.98;1.48;;;10.80;99.90;;;;;;5043739;28;20037;-60
2022/07/28 01:15:21;;;;;;;3.90;1.77;;;10.80;99.90;;;;;;5040392;28;20047;-59
2022/07/28 01:17:51;;;;;;;2.42;1.50;;;10.60;99.90;;;;;;5037891;28;20037;-60
2022/07/28 01:20:17;;;;;;;2.83;1.42;;;;;;;;;;5035627;28;20033;-59
2022/07/28 01:22:54;;;;;;;4.03;1.67;;;;;;;;;;5037608;28;20499;-60
2022/07/28 01:25:29;;;;;;;2.88;1.90;;;10.30;99.90;;;;;;5044547;28;20069;-60
2022/07/28 01:28:02;;;;;;;3.63;2.10;;;;;;;;;;5044961;28;20116;-60
2022/07/28 01:30:29;;;;;;;2.35;1.77;;;;;;;;;;5049632;28;20037;-60
2022/07/28 01:33:14;;;;;;;3.55;1.80;;;10.60;99.90;;;;;;5051938;28;20087;-59
2022/07/28 01:35:56;;;;;;;5.10;2.08;;;;;;;;;;5045581;28;20072;-59
2022/07/28 01:38:23;;;;;;;2.25;1.83;;;10.40;99.90;;;;;;5049609;28;20140;-60
2022/07/28 01:40:51;;;;;;;2.70;1.77;;;10.30;99.90;;;;;;5047803;28;20458;-59
2022/07/28 01:43:20;;;;;;;2.67;2.00;;;10.60;99.90;;;;;;5050293;28;20045;-60
2022/07/28 01:45:46;;;;;;;2.35;1.80;;;10.60;99.90;;;;;;5052698;28;20465;-60
2022/07/28 01:48:15;;;;;;;4.00;2.17;;;10.60;99.90;;;;;;5052645;28;20136;-60
2022/07/28 01:50:42;;;;;;;2.22;1.80;;;10.70;99.90;;;;;;5049367;28;20036;-60
2022/07/28 01:53:14;;;;;;;4.32;1.92;;;10.60;99.90;;;;;;5047261;28;20112;-60
2022/07/28 01:55:42;;;;;;;2.95;2.22;;;;;;;;;;5047897;28;20040;-60
2022/07/28 01:58:12;;;;;;;5.18;2.53;;;10.50;99.90;;;;;;5042097;28;20058;-58
2022/07/28 02:00:41;;;;;;;4.68;2.00;;;10.50;99.90;;;;;;5039174;28;20397;-60
2022/07/28 02:03:09;;;;;;;3.25;1.95;;;10.70;99.90;;;;;;5049686;28;20127;-59
2022/07/28 02:05:36;;;;;;;3.17;2.08;;;10.70;99.90;;;;;;5052139;28;20052;-60
2022/07/28 02:08:03;;;;;;;4.53;2.05;;;10.60;99.90;;;;;;5044815;28;20544;-59
2022/07/28 02:10:30;;;;;;;2.63;2.28;;;10.80;99.90;;;;;;5051183;28;20083;-59
2022/07/28 02:12:58;;;;;;;3.42;2.00;;;10.70;99.90;;;;;;5036905;28;20037;-60
2022/07/28 02:15:26;;;;;;;3.25;2.80;;;10.60;99.90;;;;;;5034431;28;20498;-59
2022/07/28 02:17:53;;;;;;;2.08;1.88;;;10.30;99.90;;;;;;5049835;28;20037;-60
2022/07/28 02:20:19;;;;;;;3.15;1.40;;;10.30;99.90;;;;;;5049501;28;20044;-59
2022/07/28 02:22:45;;;;;;;4.53;1.83;;;;;;;;;;5047237;28;20041;-59
2022/07/28 02:25:14;;;;;;;3.28;1.83;;;10.10;99.90;;;;;;5039056;28;20052;-60
2022/07/28 02:27:55;;;;;;;3.67;1.42;;;10.20;99.90;;;;;;5039702;28;20068;-59
2022/07/28 02:30:31;;;;;;;2.85;1.85;;;10.20;99.90;;;;;;5036876;28;20041;-59
2022/07/28 02:33:02;;;;;;;2.25;2.03;;;10.20;99.90;;;;;;5037677;28;20380;-59
2022/07/28 02:35:36;;;;;;;4.65;2.20;;;10.20;99.90;;;;;;5036035;28;20048;-60
2022/07/28 02:38:25;;;;;;;5.93;2.42;;;10.20;99.90;;;;;;5051567;28;20055;-60
2022/07/28 02:40:53;;;;;;;5.20;2.40;;;10.20;99.90;;;;;;5044214;28;20036;-60
2022/07/28 02:43:25;;;;;;;2.38;1.83;;;10.30;99.90;;;;;;5037185;28;20041;-58
2022/07/28 02:45:54;;;;;;;4.45;2.50;;;10.20;99.90;;;;;;5034236;28;20045;-60
2022/07/28 02:48:26;;;;;;;3.05;2.15;;;10.40;99.90;;;;;;5041902;28;20044;-60
2022/07/28 02:50:55;;;;;;;4.63;2.65;;;10.30;99.90;;;;;;5040285;28;20069;-60
2022/07/28 02:53:22;;;;;;;3.20;2.20;;;10.40;99.90;;;;;;5038730;28;20107;-60
2022/07/28 02:55:49;;;;;;;4.68;2.65;;;10.20;99.90;;;;;;5037535;28;20491;-60
2022/07/28 02:58:21;;;;;;;2.20;2.00;;;10.20;99.90;;;;;;5038227;28;20054;-60
2022/07/28 03:00:52;;;;;;;3.95;2.83;;;10.20;99.90;;;;;;5045198;28;20045;-59
2022/07/28 03:03:18;;;;;;;3.00;1.88;;;10.10;99.90;;;;;;5038101;28;20064;-59
2022/07/28 03:05:44;;;;;;;3.42;2.08;;;10.10;99.90;;;;;;5050314;28;20376;-60
2022/07/28 03:08:14;;;;;;;2.10;1.80;;;9.90;99.90;;;;;;5035460;28;20049;-59
2022/07/28 03:10:40;;;;;;;2.45;1.95;;;10.00;99.90;;;;;;5043428;28;20029;-60
2022/07/28 03:13:06;;;;;;;2.85;1.95;;;;;;;;;;5038124;28;20403;-60
2022/07/28 03:15:33;;;;;;;2.05;1.77;;;10.00;99.90;;;;;;5045216;28;20064;-60
2022/07/28 03:18:00;;;;;;;2.25;1.90;;;10.00;99.90;;;;;;5041673;28;20045;-60
2022/07/28 03:20:26;;;;;;;3.53;2.10;;;9.80;99.90;;;;;;5035220;28;20037;-58
2022/07/28 03:22:51;;;;;;;4.07;2.10;;;9.90;99.90;;;;;;5044066;28;20036;-60
2022/07/28 03:25:31;;;;;;;2.65;2.00;;;9.80;99.90;;;;;;5038194;28;20385;-59
2022/07/28 03:27:59;;;;;;;3.42;2.30;;;9.90;99.90;;;;;;5032584;28;20415;-59
2022/07/28 03:30:28;;;;;;;2.03;1.63;;;9.80;99.90;;;;;;5038021;28;20074;-59
2022/07/28 03:32:58;;;;;;;2.53;1.80;;;9.90;99.90;;;;;;5033640;28;20060;-59
2022/07/28 03:35:24;;;;;;;4.47;2.05;;;9.80;99.90;;;;;;5038500;28;20034;-60
2022/07/28 03:37:57;;;;;;;2.58;2.05;;;9.90;99.90;;;;;;5043849;28;20037;-60
2022/07/28 03:40:25;;;;;;;6.22;1.77;;;9.80;99.90;;;;;;5047716;28;20402;-59
2022/07/28 03:42:52;;;;;;;2.95;2.22;;;9.80;99.90;;;;;;5049394;28;20073;-60
2022/07/28 03:45:18;;;;;;;5.38;2.03;;;9.70;99.90;;;;;;5050274;28;20041;-59
2022/07/28 03:47:48;;;;;;;2.30;1.58;;;;;;;;;;5049108;28;20564;-59
2022/07/28 03:50:14;;;;;;;2.80;1.80;;;9.80;99.90;;;;;;5042378;28;20040;-60
2022/07/28 03:52:39;;;;;;;3.28;1.80;;;9.60;99.90;;;;;;5036037;28;20079;-60
2022/07/28 03:55:06;;;;;;;4.15;2.20;;;9.50;99.90;;;;;;5038224;28;20037;-60
2022/07/28 03:57:32;;;;;;;2.22;1.70;;;9.50;99.90;;;;;;5034066;28;20107;-60
2022/07/28 03:59:57;;;;;;;2.28;1.63;;;9.50;99.90;;;;;;5041484;28;20499;-60
2022/07/28 04:02:23;;;;;;;2.13;1.80;;;9.50;99.90;;;;;;5038668;28;20448;-60
2022/07/28 04:04:48;;;;;;;2.40;1.65;;;9.40;99.90;;;;;;5037934;28;20578;-58
2022/07/28 04:07:14;;;;;;;3.65;1.80;;;9.50;99.90;;;;;;5035133;28;20116;-59
2022/07/28 04:09:40;;;;;;;2.78;1.88;;;9.40;99.90;;;;;;5033139;28;20080;-58
2022/07/28 04:12:06;;;;;;;3.45;1.70;;;9.60;99.90;;;;;;5040840;28;20063;-59
2022/07/28 04:14:31;;;;;;;2.22;1.70;;;9.50;99.90;;;;;;5037156;28;20029;-59
2022/07/28 04:16:57;;;;;;;3.35;1.80;;;9.60;99.90;;;;;;5038639;28;20083;-60
2022/07/28 04:19:22;;;;;;;2.35;1.98;;;9.70;99.90;;;;;;5036640;28;20115;-60
2022/07/28 04:21:48;;;;;;;3.35;2.05;;;9.70;99.90;;;;;;5033536;28;20045;-59
2022/07/28 04:24:13;;;;;;;8.55;3.63;;;9.60;99.90;;;;;;5033991;28;20499;-60
2022/07/28 04:26:39;;;;;;;2.40;1.92;;;;;;;;;;5043395;28;20407;-59
2022/07/28 04:29:05;;;;;;;5.70;1.95;;;9.50;99.90;;;;;;5034884;28;20446;-60
2022/07/28 04:31:30;;;;;;;2.58;1.60;;;9.50;99.90;;;;;;5043830;28;20112;-58
2022/07/28 04:33:56;;;;;;;2.60;1.98;;;9.60;99.90;;;;;;5038710;28;20499;-60
2022/07/28 04:36:22;;;;;;;3.72;1.85;;;9.60;99.90;;;;;;5041294;28;20491;-60
2022/07/28 04:38:48;;;;;;;4.68;1.95;;;;;;;;;;5037689;28;20061;-60
2022/07/28 04:41:14;;;;;;;4.90;2.10;;;;;;;;;;5043357;28;20041;-60
2022/07/28 04:43:40;;;;;;;4.38;1.98;;;;;;;;;;5049518;28;20095;-60
2022/07/28 04:46:05;;;;;;;2.78;2.17;;;10.00;99.90;;;;;;5049411;28;20049;-60
2022/07/28 04:48:31;;;;;;;5.28;2.13;;;9.90;99.90;;;;;;5037462;28;20395;-59
2022/07/28 04:50:56;;;;;;;3.97;2.10;;;9.80;99.90;;;;;;5042720;28;20125;-60
2022/07/28 04:53:23;;;;;;;4.25;2.60;;;;;;;;;;5037625;28;20048;-60
2022/07/28 04:55:50;;;;;;;5.22;3.35;;;9.90;99.90;;;;;;5037373;28;20045;-59
2022/07/28 04:58:17;;;;;;;3.13;1.73;;;10.00;99.90;;;;;;5041897;28;20061;-59
2022/07/28 05:00:43;;;;;;;2.60;1.60;;;10.00;99.90;;;;;;5043021;28;20048;-60
2022/07/28 05:03:09;;;;;;;4.63;2.13;;;10.10;99.90;;;;;;5043822;28;20502;-59
2022/07/28 05:05:34;;;;;;;3.35;2.20;;;10.20;99.90;;;;;;5035482;28;20085;-59
2022/07/28 05:08:00;;;;;;;7.07;2.28;;;10.10;99.90;;;;;;5042443;28;20044;-60
2022/07/28 05:10:25;;;;;;;5.13;2.78;;;10.30;99.90;;;;;;5042817;28;20043;-60
2022/07/28 05:12:53;;;;;;;5.07;2.67;;;10.30;99.90;;;;;;5042087;28;20503;-59
2022/07/28 05:15:19;;;;;;;2.97;1.95;;;10.20;99.90;;;;;;5038841;28;20513;-60
2022/07/28 05:17:44;;;;;;;2.55;1.90;;;10.40;99.90;;;;;;5047080;28;20048;-58
2022/07/28 05:20:12;;;;;;;5.82;2.40;;;10.40;99.90;;;;;;5035545;28;20073;-60
2022/07/28 05:22:45;;;;;;;4.75;2.53;;;10.50;99.90;;;;;;5036243;28;20553;-59
2022/07/28 05:25:16;;;;;;;2.88;1.90;;;10.60;99.90;;;;;;5048936;28;20116;-60
2022/07/28 05:27:43;;;;;;;5.88;2.08;;;10.60;99.90;;;;;;5039185;28;20045;-60
2022/07/28 05:30:10;;;;;;;3.25;2.10;;;10.70;99.90;;;;;;5036052;28;20038;-60
2022/07/28 05:32:35;;;;;;;3.92;2.30;;;10.80;99.90;;;;;;5037806;28;20086;-60
2022/07/28 05:35:01;;;;;;;4.03;2.65;;;11.20;99.90;;;;;;5036893;28;20041;-60
2022/07/28 05:37:27;;;;;;;4.70;2.58;;;11.10;99.90;;;;;;5051616;28;20116;-60
2022/07/28 05:39:53;;;;;;;3.65;2.63;;;11.40;99.90;;;;;;5044790;28;20666;-60
2022/07/28 05:42:19;;;;;;;3.20;2.53;;;11.50;99.90;;;;;;5038183;28;20036;-59
2022/07/28 05:44:44;;;;;;;3.28;2.30;;;11.80;99.90;;;;;;5035500;28;20053;-60
2022/07/28 05:47:10;;;;;;;5.38;2.72;;;11.80;99.90;;;;;;5048174;28;20055;-60
2022/07/28 05:49:36;;;;;;;5.70;2.47;;;11.90;99.90;;;;;;5043301;28;20407;-59
2022/07/28 05:52:02;;;;;;;3.20;2.20;;;11.80;99.90;;;;;;5038002;28;20046;-60
2022/07/28 05:54:28;;;;;;;2.83;2.08;;;;;;;;;;5036670;28;20100;-60
2022/07/28 05:56:53;;;;;;;5.60;2.50;;;12.10;99.90;;;;;;5037506;28;20075;-60
2022/07/28 05:59:19;;;;;;;3.95;2.70;;;12.30;99.90;;;;;;5040558;28;20057;-59
2022/07/28 06:01:45;;;;;;;4.75;2.28;;;12.40;99.90;;;;;;5039070;28;20107;-60
2022/07/28 06:04:10;;;;;;;2.78;2.17;;;12.50;99.90;;;;;;5037771;28;20116;-59
2022/07/28 06:06:36;;;;;;;4.15;2.67;;;12.80;99.90;;;;;;5034407;28;20049;-60
2022/07/28 06:09:02;;;;;;;3.47;2.00;;;13.00;99.90;;;;;;5038246;28;20455;-61
2022/07/28 06:11:27;;;;;;;4.30;2.33;;;13.60;99.90;;;;;;5045306;28;20033;-61
2022/07/28 06:13:53;;;;;;;3.30;2.00;;;14.40;99.90;;;;;;5037767;28;20041;-60
2022/07/28 06:16:21;;;;;;;5.70;1.50;;;14.50;99.90;;;;;;5038715;28;20072;-61
2022/07/28 06:18:47;;;;;;;3.40;1.75;;;15.40;99.90;;;;;;5039636;28;20049;-61
2022/07/28 06:21:13;;;;;;;3.97;2.28;;;16.40;99.90;;;;;;5037781;28;20087;-60
2022/07/28 06:23:38;;;;;;;4.53;1.42;;;16.40;99.90;;;;;;5046459;28;20080;-61
2022/07/28 06:26:04;;;;;;;6.03;1.35;;;17.90;99.90;;;;;;5039209;28;20098;-61
2022/07/28 06:28:31;;;;;;;3.28;2.15;;;19.10;99.90;;;;;;5039089;28;20465;-61
2022/07/28 06:30:56;;;;;;;3.60;0.98;;;19.70;99.90;;;;;;5052754;28;20044;-61
2022/07/28 06:33:22;;;;;;;4.03;0.93;;;20.40;99.90;;;;;;5046753;28;20404;-62
2022/07/28 06:35:48;;;;;;;2.80;0.80;;;20.80;99.90;;;;;;5040583;28;20107;-62
2022/07/28 06:38:13;;;;;;;1.58;0.80;;;20.40;99.90;;;;;;5050953;28;20037;-62
2022/07/28 06:40:39;;;;;;;4.35;0.77;;;20.20;99.90;;;;;;5049413;28;20044;-62
2022/07/28 06:43:04;;;;;;;3.88;0.80;;;19.50;99.90;;;;;;5046329;28;20049;-62
2022/07/28 06:45:30;;;;;;;3.13;0.85;;;19.10;99.90;;;;;;5041246;28;20083;-61
2022/07/28 06:47:56;;;;;;;3.65;0.60;;;18.50;99.90;;;;;;5050037;28;20037;-61
2022/07/28 06:50:21;;;;;;;3.80;0.73;;;17.60;99.90;;;;;;5049689;28;20040;-62
2022/07/28 06:52:47;;;;;;;3.47;1.30;;;17.50;99.90;;;;;;5042982;28;20639;-61
2022/07/28 06:55:14;;;;;;;3.40;0.80;;;17.40;99.90;;;;;;5042937;28;20033;-61
2022/07/28 06:57:41;;;;;;;6.32;1.10;;;16.80;99.90;;;;;;5046645;28;20050;-62
2022/07/28 07:00:09;;;;;;;5.28;1.10;;;16.70;99.90;;;;;;5040714;28;20041;-61
2022/07/28 07:02:38;;;;;;;5.43;1.17;;;16.50;99.90;;;;;;5037155;28;20055;-62
2022/07/28 07:05:05;;;;;;;7.35;1.55;;;16.30;99.90;;;;;;5034007;28;20045;-62
2022/07/28 07:07:30;;;;;;;3.97;0.90;;;16.10;99.90;;;;;;5035634;28;20041;-62
2022/07/28 07:09:56;;;;;;;4.35;1.02;;;16.20;99.90;;;;;;5032600;28;20128;-62
2022/07/28 07:12:21;;;;;;;2.72;1.00;;;16.00;99.90;;;;;;5040762;28;20048;-62
2022/07/28 07:14:47;;;;;;;6.18;1.35;;;15.80;99.90;;;;;;5040531;28;20037;-62
2022/07/28 07:17:12;;;;;;;6.80;1.70;;;16.00;99.90;;;;;;5033236;28;20124;-62
2022/07/28 07:19:38;;;;;;;4.00;0.93;;;15.90;99.90;;;;;;5043445;28;20415;-62
2022/07/28 07:22:03;;;;;;;4.30;0.88;;;15.80;99.90;;;;;;5048521;28;20713;-62
2022/07/28 07:24:29;;;;;;;4.10;1.23;;;16.00;99.90;;;;;;5048576;28;20061;-62
2022/07/28 07:26:55;;;;;;;5.63;1.13;;;15.70;99.90;;;;;;5036844;28;20049;-62
2022/07/28 07:29:21;;;;;;;5.88;1.05;;;15.70;99.90;;;;;;5049336;28;20033;-62
2022/07/28 07:31:47;;;;;;;2.95;1.00;;;15.70;99.90;;;;;;5046961;28;20036;-61
2022/07/28 07:34:14;;;;;;;5.40;1.02;;;15.80;99.90;;;;;;5033167;28;20037;-62
2022/07/28 07:36:40;;;;;;;4.43;0.80;;;15.60;99.90;;;;;;5039579;28;20045;-61
2022/07/28 07:39:06;;;;;;;3.72;1.38;;;15.60;99.90;;;;;;5041686;28;20047;-62
2022/07/28 07:41:31;;;;;;;2.15;0.70;;;15.50;99.90;;;;;;5037115;28;20045;-62
2022/07/28 07:43:57;;;;;;;3.45;0.90;;;15.80;99.90;;;;;;5030469;28;20049;-62
2022/07/28 07:46:22;;;;;;;2.80;0.80;;;16.00;99.90;;;;;;5040085;28;20041;-62
2022/07/28 07:48:48;;;;;;;2.08;0.90;;;16.00;99.90;;;;;;5052463;28;20041;-61
2022/07/28 07:51:13;;;;;;;3.58;0.90;;;16.20;99.90;;;;;;5050466;28;20045;-61
2022/07/28 07:53:39;;;;;;;2.83;0.90;;;16.40;99.90;;;;;;5052296;28;20041;-62
2022/07/28 07:56:04;;;;;;;4.63;1.30;;;16.50;99.90;;;;;;5051947;28;20039;-61
2022/07/28 07:58:30;;;;;;;3.30;1.23;;;16.60;99.90;;;;;;5052119;28;20049;-61
2022/07/28 08:01:06;;;;;;;4.20;1.10;;;16.80;99.90;;;;;;5049048;28;20067;-61
2022/07/28 08:03:38;;;;;;;3.55;0.85;;;16.90;99.90;;;;;;5049856;28;20066;-61
2022/07/28 08:06:11;;;;;;;4.15;0.80;;;16.90;99.90;;;;;;5033567;28;20098;-61
2022/07/28 08:08:44;;;;;;;4.50;1.42;;;17.00;99.90;;;;;;5052064;28;20040;-61
2022/07/28 08:11:19;;;;;;;4.80;1.10;;;17.00;99.90;;;;;;5048557;28;20067;-61
2022/07/28 08:13:50;;;;;;;2.15;0.82;;;17.10;99.90;;;;;;5041482;28;20407;-61
2022/07/28 08:16:20;;;;;;;6.05;0.90;;;17.20;99.90;;;;;;5036128;28;20077;-61
2022/07/28 08:18:52;;;;;;;4.18;0.77;;;17.20;99.90;;;;;;5038336;28;20053;-61
2022/07/28 08:21:18;;;;;;;3.47;0.77;;;17.30;99.90;;;;;;5050212;28;20052;-62
2022/07/28 08:23:47;;;;;;;2.90;1.00;;;17.00;99.90;;;;;;5056048;28;20033;-61
2022/07/28 08:26:16;;;;;;;1.33;0.95;;;17.10;99.90;;;;;;5055553;28;20553;-61
2022/07/28 08:28:42;;;;;;;1.98;0.65;;;17.10;99.90;;;;;;5042312;28;20041;-62
2022/07/28 08:31:08;;;;;;;2.30;0.63;;;17.30;99.90;;;;;;5056068;28;20033;-61
2022/07/28 08:33:33;;;;;;;5.38;0.90;;;17.10;99.90;;;;;;5054209;28;20048;-62
2022/07/28 08:35:59;;;;;;;4.30;1.05;;;16.90;99.90;;;;;;5055786;28;20491;-61
2022/07/28 08:38:25;;;;;;;1.40;0.80;;;17.10;99.90;;;;;;5055895;28;20076;-62
2022/07/28 08:40:55;;;;;;;2.38;1.02;;;16.90;99.90;;;;;;5055649;28;20037;-62
2022/07/28 08:43:36;;;;;;;3.20;0.90;;;17.20;99.90;;;;;;5053569;28;20479;-61
2022/07/28 08:46:05;;;;;;;4.43;1.02;;;17.20;99.90;;;;;;5050711;28;20065;-62
2022/07/28 08:48:32;;;;;;;2.10;0.80;;;17.00;99.90;;;;;;5034419;28;20418;-62
2022/07/28 08:51:05;;;;;;;4.60;1.10;;;17.00;99.90;;;;;;5039060;28;20067;-61
2022/07/28 08:53:33;;;;;;;4.35;1.10;;;17.10;99.90;;;;;;5053866;28;20125;-62
2022/07/28 08:56:08;;;;;;;2.97;0.80;;;17.00;99.90;;;;;;5050278;28;20040;-62
2022/07/28 08:58:39;;;;;;;5.13;0.88;;;17.00;99.90;;;;;;5046923;28;20466;-62
2022/07/28 09:01:13;;;;;;;4.22;0.77;;;17.10;99.90;;;;;;5041149;28;20120;-62
2022/07/28 09:03:45;;;;;;;4.65;0.93;;;17.00;99.90;;;;;;5036910;28;20044;-61
2022/07/28 09:06:14;;;;;;;;;;;16.90;99.90;;;;;;5055557;28;20041;-62
2022/07/28 09:08:42;;;;;;;3.92;0.88;;;16.70;99.90;;;;;;5055125;28;19942;-62
2022/07/28 09:11:10;;;;;;;3.65;1.02;;;16.60;99.90;;;;;;5053956;28;20438;-62
2022/07/28 09:13:39;;;;;;;3.83;0.90;;;16.60;99.90;;;;;;5021019;28;20045;-62
2022/07/28 09:16:08;;;;;;;2.80;0.70;;;16.60;99.90;;;;;;5037795;28;20047;-61
2022/07/28 09:18:37;;;;;;;4.30;0.98;;;16.70;99.90;;;;;;5055676;28;20068;-62
2022/07/28 09:21:03;;;;;;;4.97;0.88;;;16.60;99.90;;;;;;5041842;28;20061;-61
2022/07/28 09:23:47;;;;;;;4.97;1.23;;;16.60;99.90;;;;;;5054839;28;20049;-61
2022/07/28 09:26:13;;;;;;;9.05;1.20;;;16.60;99.90;;;;;;5054951;28;20041;-61
2022/07/28 09:28:47;;;;;;;5.75;1.27;;;16.70;99.90;;;;;;5040101;28;20470;-62
2022/07/28 09:31:14;;;;;;;6.17;1.17;;;16.80;99.90;;;;;;5053715;28;20047;-61
2022/07/28 09:33:59;;;;;;;6.65;1.42;;;17.00;99.90;;;;;;5038824;28;20051;-61
2022/07/28 09:36:24;;;;;;;6.45;1.20;;;17.00;99.90;;;;;;5054716;28;20102;-62
2022/07/28 09:38:50;;;;;;;8.20;1.20;;;17.00;99.90;;;;;;5051552;28;20403;-62
2022/07/28 09:41:22;;;;;;;3.58;0.80;;;17.10;99.90;;;;;;5042417;28;20437;-62
2022/07/28 09:43:50;;;;;;;4.60;1.35;;;17.30;99.90;;;;;;5054348;28;20427;-62
2022/07/28 09:46:20;;;;;;;6.50;0.65;;;17.10;99.90;;;;;;5053017;28;20033;-62
2022/07/28 09:48:48;;;;;;;4.18;0.75;;;17.50;99.90;;;;;;5041197;28;20077;-62
2022/07/28 09:51:15;;;;;;;2.85;0.77;;;17.40;99.90;;;;;;5040115;28;20422;-62
2022/07/28 09:53:41;;;;;;;2.17;0.80;;;17.40;99.90;;;;;;5041682;28;20042;-62
2022/07/28 09:56:07;;;;;;;1.80;0.70;;;17.50;99.90;;;;;;5052476;28;20044;-62
2022/07/28 09:58:33;;;;;;;2.80;0.60;;;17.20;99.90;;;;;;5054351;28;20084;-62
2022/07/28 10:01:14;;;;;;;1.70;0.50;;;17.70;99.90;;;;;;5053927;28;20041;-61
2022/07/28 10:03:42;;;;;;;3.45;0.68;;;17.40;99.90;;;;;;5052491;28;20049;-62
2022/07/28 10:06:14;;;;;;;3.95;1.02;;;17.60;99.90;;;;;;5040060;28;20047;-62
2022/07/28 10:08:47;;;;;;;4.32;0.80;;;17.90;99.90;;;;;;5045034;28;20046;-62
2022/07/28 10:11:15;;;;;;;2.17;0.70;;;18.00;99.90;;;;;;5049219;28;20041;-62
2022/07/28 10:14:12;;;;;;;2.55;0.80;;;17.90;99.90;;;;;;5053543;28;20438;-62
2022/07/28 10:16:51;;;;;;;2.97;0.63;;;18.10;99.90;;;;;;5049351;28;20083;-62
2022/07/28 10:19:17;;;;;;;4.18;0.90;;;18.20;99.90;;;;;;5053978;28;20103;-62
2022/07/28 10:21:43;;;;;;;2.22;1.00;;;18.10;99.90;;;;;;5052867;28;20044;-62
2022/07/28 10:24:19;;;;;;;4.15;0.80;;;18.30;99.90;;;;;;5042998;28;20527;-62
2022/07/28 10:26:46;;;;;;;2.17;0.75;;;18.50;99.90;;;;;;5047932;28;20045;-62
2022/07/28 10:29:15;;;;;;;2.65;0.68;;;18.20;99.90;;;;;;5044243;28;20052;-62
2022/07/28 10:31:51;;;;;;;2.40;0.82;;;18.40;99.90;;;;;;5053151;28;20499;-61
2022/07/28 10:34:22;;;;;;;2.13;0.52;;;18.40;99.90;;;;;;5052986;28;20033;-62
2022/07/28 10:36:49;;;;;;;1.88;0.70;;;18.40;99.90;;;;;;5052794;28;20044;-62
2022/07/28 10:39:18;;;;;;;4.00;0.80;;;18.40;99.90;;;;;;5048368;28;20113;-62
2022/07/28 10:41:45;;;;;;;4.75;1.25;;;18.20;99.90;;;;;;5043563;28;20456;-62
2022/07/28 10:44:17;;;;;;;3.47;1.05;;;18.50;99.90;;;;;;5049752;28;20033;-62
2022/07/28 10:46:43;;;;;;;2.90;1.40;;;18.30;99.90;;;;;;5043399;28;20491;-61
2022/07/28 10:49:10;;;;;;;2.22;0.80;;;18.10;99.90;;;;;;5036703;28;20108;-62
2022/07/28 10:51:40;;;;;;;5.50;1.20;;;18.30;99.90;;;;;;5033337;28;20121;-62
2022/07/28 10:54:26;;;;;;;3.70;0.73;;;18.30;99.90;;;;;;5050787;28;20045;-62
2022/07/28 10:57:01;;;;;;;2.67;0.93;;;18.30;99.90;;;;;;5052066;28;20407;-62
2022/07/28 10:59:57;;;;;;;2.80;0.93;;;18.30;99.90;;;;;;5051432;28;20063;-62
2022/07/28 11:02:43;;;;;;;5.03;0.88;;;18.50;99.90;;;;;;5044194;28;20063;-62
2022/07/28 11:05:24;;;;;;;3.08;0.95;;;18.60;99.90;;;;;;5036540;28;20042;-62
2022/07/28 11:07:50;;;;;;;1.67;0.77;;;18.40;99.90;;;;;;5049225;28;20399;-62
2022/07/28 11:10:17;;;;;;;3.35;1.48;;;18.30;99.90;;;;;;5053075;28;20041;-62
2022/07/28 11:12:50;;;;;;;2.25;0.90;;;17.90;99.90;;;;;;5044767;28;20041;-61
2022/07/28 11:15:33;;;;;;;1.38;0.82;;;18.00;99.90;;;;;;5040772;28;20037;-62
2022/07/28 11:18:08;;;;;;;2.78;0.80;;;18.20;99.90;;;;;;5052718;28;20033;-62
2022/07/28 11:20:51;;;;;;;1.52;0.60;;;18.10;99.90;;;;;;5052819;28;20509;-62
2022/07/28 11:23:35;;;;;;;3.55;0.85;;;18.60;99.90;;;;;;5048316;28;20041;-62
2022/07/28 11:26:22;;;;;;;4.53;1.60;;;18.70;99.90;;;;;;5045082;28;20071;-62
2022/07/28 11:28:57;;;;;;;1.73;0.70;;;18.60;99.90;;;;;;5039553;28;20106;-62
2022/07/28 11:31:43;;;;;;;3.67;0.70;;;18.50;99.90;;;;;;5051223;28;20124;-62
2022/07/28 11:34:13;;;;;;;3.47;0.60;;;18.60;99.90;;;;;;5051539;28;20033;-62
2022/07/28 11:36:56;;;;;;;4.45;0.70;;;18.30;99.90;;;;;;5051433;28;20044;-62
2022/07/28 11:39:28;;;;;;;5.03;0.70;;;18.20;99.90;;;;;;5051515;28;20139;-62
2022/07/28 11:41:54;;;;;;;2.20;0.68;;;18.30;99.90;;;;;;5052144;28;20430;-61
2022/07/28 11:44:27;;;;;;;3.15;0.90;;;18.20;99.90;;;;;;5040904;28;20037;-62
2022/07/28 11:46:53;;;;;;;3.35;0.50;;;18.40;99.90;;;;;;5052320;28;20552;-62
2022/07/28 11:49:21;;;;;;;2.35;0.63;;;18.50;99.90;;;;;;5038131;28;20044;-62
2022/07/28 11:52:06;;;;;;;3.15;0.60;;;18.50;99.90;;;;;;5051726;28;20068;-62
2022/07/28 11:54:32;;;;;;;;;;;18.80;99.90;;;;;;5028662;28;20476;-62
2022/07/28 11:56:58;;;;;;;1.67;0.70;;;18.80;99.90;;;;;;5032498;28;19917;-62
2022/07/28 11:59:24;;;;;;;1.67;0.60;;;18.60;99.90;;;;;;5035189;28;20055;-62
2022/07/28 12:01:53;;;;;;;4.60;1.38;;;18.50;99.90;;;;;;5052130;28;20525;-62
2022/07/28 12:04:18;;;;;;;3.40;1.23;;;18.60;99.90;;;;;;5051267;28;20037;-62
2022/07/28 12:06:45;;;;;;;2.15;0.80;;;18.80;99.90;;;;;;5050818;28;20087;-62
2022/07/28 12:09:16;;;;;;;2.40;0.57;;;19.00;99.90;;;;;;5052051;28;20041;-62
2022/07/28 12:11:41;;;;;;;1.50;0.60;;;19.10;99.90;;;;;;5037568;28;20048;-62
2022/07/28 12:14:13;;;;;;;2.70;0.90;;;19.40;99.90;;;;;;5051089;28;20033;-62
2022/07/28 12:16:40;;;;;;;1.85;0.77;;;19.30;99.90;;;;;;5032197;28;20128;-62
2022/07/28 12:19:07;;;;;;;3.63;0.85;;;19.40;99.90;;;;;;5043346;28;20094;-62
2022/07/28 12:21:37;;;;;;;2.85;0.90;;;19.50;99.90;;;;;;5048453;28;20120;-62
2022/07/28 12:24:04;;;;;;;2.63;0.98;;;19.60;99.90;;;;;;5042537;28;20149;-62
2022/07/28 12:26:31;;;;;;;3.25;0.82;;;19.60;99.90;;;;;;5048553;28;20041;-62
2022/07/28 12:28:57;;;;;;;2.05;0.80;;;19.40;99.90;;;;;;5031915;28;20041;-62
2022/07/28 12:31:26;;;;;;;4.20;0.60;;;19.50;99.90;;;;;;5046067;28;20048;-62
2022/07/28 12:33:51;;;;;;;5.78;0.82;;;19.40;99.90;;;;;;5050623;28;20086;-62
2022/07/28 12:36:20;;;;;;;8.55;1.27;;;19.40;99.90;;;;;;5033896;28;20045;-62
2022/07/28 12:38:46;;;;;;;6.18;0.90;;;19.40;99.90;;;;;;5050582;28;20561;-62
2022/07/28 12:41:15;;;;;;;2.53;0.70;;;19.30;99.90;;;;;;5044793;28;20045;-62
2022/07/28 12:43:49;;;;;;;2.55;0.68;;;19.40;99.90;;;;;;5038062;28;20048;-62
2022/07/28 12:46:22;;;;;;;3.03;0.93;;;19.30;99.90;;;;;;5039669;28;20087;-62
2022/07/28 12:48:48;;;;;;;2.38;0.60;;;19.60;99.90;;;;;;5051976;28;20127;-62
2022/07/28 12:51:29;;;;;;;3.92;0.70;;;19.50;99.90;;;;;;5051755;28;20025;-62
2022/07/28 12:53:58;;;;;;;1.95;0.80;;;19.70;99.90;;;;;;5051097;28;20124;-62
2022/07/28 12:56:24;;;;;;;1.50;0.52;;;19.70;99.90;;;;;;5051469;28;20158;-62
2022/07/28 12:59:06;;;;;;;2.05;1.20;;;19.70;99.90;;;;;;5039272;28;20077;-62
2022/07/28 13:01:53;;;;;;;2.78;0.47;;;20.00;99.90;;;;;;5038561;28;20068;-62
2022/07/28 13:04:42;;;;;;;1.30;0.70;;;19.80;99.90;;;;;;5050814;28;20487;-62